sensor_id;sensor_type;location;lat;lon;timestamp;P1;durP1;ratioP1;P2;durP2;ratioP2
38238;SDS011;24035;48.900;9.188;2022-07-29T00:01:51;5.25;;;2.47;;
38238;SDS011;24035;48.900;9.188;2022-07-29T00:04:20;4.55;;;2.30;;
38238;SDS011;24035;48.900;9.188;2022-07-29T00:06:46;4.82;;;2.40;;
38238;SDS011;24035;48.900;9.188;2022-07-29T00:09:12;5.05;;;2.95;;
38238;SDS011;24035;48.900;9.188;2022-07-29T00:11:37;8.13;;;2.78;;
38238;SDS011;24035;48.900;9.188;2022-07-29T00:14:03;6.07;;;2.50;;
38238;SDS011;24035;48.900;9.188;2022-07-29T00:16:29;6.38;;;2.28;;
38238;SDS011;24035;48.900;9.188;2022-07-29T00:18:54;4.80;;;2.00;;
38238;SDS011;24035;48.900;9.188;2022-07-29T00:21:20;4.85;;;2.53;;
38238;SDS011;24035;48.900;9.188;2022-07-29T00:23:46;7.03;;;2.58;;
38238;SDS011;24035;48.900;9.188;2022-07-29T00:26:11;4.88;;;2.58;;
38238;SDS011;24035;48.900;9.188;2022-07-29T00:28:39;6.75;;;2.58;;
38238;SDS011;24035;48.900;9.188;2022-07-29T00:31:05;4.47;;;2.30;;
38238;SDS011;24035;48.900;9.188;2022-07-29T00:33:31;4.65;;;2.28;;
38238;SDS011;24035;48.900;9.188;2022-07-29T00:35:56;6.22;;;2.88;;
38238;SDS011;24035;48.900;9.188;2022-07-29T00:38:22;3.75;;;2.30;;
38238;SDS011;24035;48.900;9.188;2022-07-29T00:40:48;3.90;;;2.08;;
38238;SDS011;24035;48.900;9.188;2022-07-29T00:43:14;5.65;;;2.70;;
38238;SDS011;24035;48.900;9.188;2022-07-29T00:45:40;6.28;;;2.50;;
38238;SDS011;24035;48.900;9.188;2022-07-29T00:48:06;4.18;;;2.17;;
38238;SDS011;24035;48.900;9.188;2022-07-29T00:50:36;4.70;;;2.22;;
38238;SDS011;24035;48.900;9.188;2022-07-29T00:53:04;5.55;;;2.42;;
38238;SDS011;24035;48.900;9.188;2022-07-29T00:55:34;6.40;;;2.45;;
38238;SDS011;24035;48.900;9.188;2022-07-29T00:58:00;4.18;;;2.15;;
38238;SDS011;24035;48.900;9.188;2022-07-29T01:00:30;5.88;;;2.80;;
38238;SDS011;24035;48.900;9.188;2022-07-29T01:02:56;5.32;;;2.42;;
38238;SDS011;24035;48.900;9.188;2022-07-29T01:05:23;5.35;;;2.35;;
38238;SDS011;24035;48.900;9.188;2022-07-29T01:07:51;6.30;;;2.58;;
38238;SDS011;24035;48.900;9.188;2022-07-29T01:10:19;4.80;;;2.60;;
38238;SDS011;24035;48.900;9.188;2022-07-29T01:12:46;4.38;;;2.30;;
38238;SDS011;24035;48.900;9.188;2022-07-29T01:15:14;7.18;;;2.70;;
38238;SDS011;24035;48.900;9.188;2022-07-29T01:23:11;3.83;;;2.30;;
38238;SDS011;24035;48.900;9.188;2022-07-29T01:31:50;4.15;;;2.15;;
38238;SDS011;24035;48.900;9.188;2022-07-29T01:34:24;7.32;;;2.70;;
38238;SDS011;24035;48.900;9.188;2022-07-29T01:37:15;5.32;;;2.58;;
38238;SDS011;24035;48.900;9.188;2022-07-29T01:39:50;4.43;;;2.40;;
38238;SDS011;24035;48.900;9.188;2022-07-29T01:47:20;5.40;;;2.92;;
38238;SDS011;24035;48.900;9.188;2022-07-29T01:49:51;4.75;;;2.85;;
38238;SDS011;24035;48.900;9.188;2022-07-29T01:52:31;4.47;;;2.83;;
38238;SDS011;24035;48.900;9.188;2022-07-29T01:55:09;6.03;;;2.40;;
38238;SDS011;24035;48.900;9.188;2022-07-29T01:57:38;4.47;;;2.40;;
38238;SDS011;24035;48.900;9.188;2022-07-29T02:00:07;5.85;;;2.75;;
38238;SDS011;24035;48.900;9.188;2022-07-29T02:02:37;4.93;;;2.63;;
38238;SDS011;24035;48.900;9.188;2022-07-29T02:05:05;4.45;;;2.60;;
38238;SDS011;24035;48.900;9.188;2022-07-29T02:07:33;5.60;;;2.60;;
38238;SDS011;24035;48.900;9.188;2022-07-29T02:10:00;5.47;;;2.25;;
38238;SDS011;24035;48.900;9.188;2022-07-29T02:12:29;6.38;;;2.33;;
38238;SDS011;24035;48.900;9.188;2022-07-29T02:14:59;6.40;;;2.80;;
38238;SDS011;24035;48.900;9.188;2022-07-29T02:17:28;6.05;;;2.58;;
38238;SDS011;24035;48.900;9.188;2022-07-29T02:19:59;6.90;;;2.97;;
38238;SDS011;24035;48.900;9.188;2022-07-29T02:22:28;5.35;;;2.33;;
38238;SDS011;24035;48.900;9.188;2022-07-29T02:24:56;4.95;;;2.95;;
38238;SDS011;24035;48.900;9.188;2022-07-29T02:27:26;6.30;;;2.92;;
38238;SDS011;24035;48.900;9.188;2022-07-29T02:29:54;5.78;;;2.75;;
38238;SDS011;24035;48.900;9.188;2022-07-29T02:32:22;3.90;;;2.47;;
38238;SDS011;24035;48.900;9.188;2022-07-29T02:34:50;5.07;;;2.83;;
38238;SDS011;24035;48.900;9.188;2022-07-29T02:37:17;8.07;;;2.95;;
38238;SDS011;24035;48.900;9.188;2022-07-29T02:39:43;4.85;;;2.75;;
38238;SDS011;24035;48.900;9.188;2022-07-29T02:42:11;4.18;;;2.58;;
38238;SDS011;24035;48.900;9.188;2022-07-29T02:44:39;4.53;;;2.97;;
38238;SDS011;24035;48.900;9.188;2022-07-29T02:50:11;5.28;;;3.33;;
38238;SDS011;24035;48.900;9.188;2022-07-29T02:52:53;6.60;;;2.92;;
38238;SDS011;24035;48.900;9.188;2022-07-29T03:01:04;6.15;;;3.05;;
38238;SDS011;24035;48.900;9.188;2022-07-29T03:03:45;5.00;;;2.53;;
38238;SDS011;24035;48.900;9.188;2022-07-29T03:06:13;5.63;;;2.97;;
38238;SDS011;24035;48.900;9.188;2022-07-29T03:08:40;5.05;;;2.58;;
38238;SDS011;24035;48.900;9.188;2022-07-29T03:11:07;5.90;;;3.65;;
38238;SDS011;24035;48.900;9.188;2022-07-29T03:13:34;5.10;;;3.38;;
38238;SDS011;24035;48.900;9.188;2022-07-29T03:16:00;6.13;;;3.25;;
38238;SDS011;24035;48.900;9.188;2022-07-29T03:18:26;5.72;;;3.00;;
38238;SDS011;24035;48.900;9.188;2022-07-29T03:20:52;4.57;;;2.67;;
38238;SDS011;24035;48.900;9.188;2022-07-29T03:23:19;8.35;;;3.15;;
38238;SDS011;24035;48.900;9.188;2022-07-29T03:25:47;5.07;;;2.70;;
38238;SDS011;24035;48.900;9.188;2022-07-29T03:28:14;5.85;;;2.97;;
38238;SDS011;24035;48.900;9.188;2022-07-29T03:30:40;9.07;;;3.05;;
38238;SDS011;24035;48.900;9.188;2022-07-29T03:33:05;7.72;;;3.35;;
38238;SDS011;24035;48.900;9.188;2022-07-29T03:35:31;4.80;;;3.05;;
38238;SDS011;24035;48.900;9.188;2022-07-29T03:37:57;4.38;;;2.83;;
38238;SDS011;24035;48.900;9.188;2022-07-29T03:40:35;4.80;;;2.63;;
38238;SDS011;24035;48.900;9.188;2022-07-29T03:43:07;4.35;;;2.60;;
38238;SDS011;24035;48.900;9.188;2022-07-29T03:45:35;6.18;;;2.53;;
38238;SDS011;24035;48.900;9.188;2022-07-29T03:48:03;6.20;;;2.63;;
38238;SDS011;24035;48.900;9.188;2022-07-29T03:50:33;8.52;;;2.80;;
38238;SDS011;24035;48.900;9.188;2022-07-29T03:52:59;5.28;;;2.85;;
38238;SDS011;24035;48.900;9.188;2022-07-29T03:55:26;5.82;;;2.67;;
38238;SDS011;24035;48.900;9.188;2022-07-29T03:57:54;7.40;;;3.05;;
38238;SDS011;24035;48.900;9.188;2022-07-29T04:00:22;5.38;;;2.75;;
38238;SDS011;24035;48.900;9.188;2022-07-29T04:02:48;5.25;;;2.80;;
38238;SDS011;24035;48.900;9.188;2022-07-29T04:05:14;4.50;;;2.63;;
38238;SDS011;24035;48.900;9.188;2022-07-29T04:07:43;5.10;;;2.72;;
38238;SDS011;24035;48.900;9.188;2022-07-29T04:10:10;9.10;;;2.58;;
38238;SDS011;24035;48.900;9.188;2022-07-29T04:12:35;5.45;;;2.60;;
38238;SDS011;24035;48.900;9.188;2022-07-29T04:15:02;7.35;;;2.78;;
38238;SDS011;24035;48.900;9.188;2022-07-29T04:17:29;6.03;;;2.72;;
38238;SDS011;24035;48.900;9.188;2022-07-29T04:19:54;4.60;;;2.63;;
38238;SDS011;24035;48.900;9.188;2022-07-29T04:22:20;6.50;;;2.90;;
38238;SDS011;24035;48.900;9.188;2022-07-29T04:24:45;5.50;;;2.58;;
38238;SDS011;24035;48.900;9.188;2022-07-29T04:27:11;4.93;;;2.95;;
38238;SDS011;24035;48.900;9.188;2022-07-29T04:29:37;6.25;;;3.10;;
38238;SDS011;24035;48.900;9.188;2022-07-29T04:32:06;5.00;;;2.95;;
38238;SDS011;24035;48.900;9.188;2022-07-29T04:34:31;5.47;;;3.17;;
38238;SDS011;24035;48.900;9.188;2022-07-29T04:36:57;4.75;;;2.92;;
38238;SDS011;24035;48.900;9.188;2022-07-29T04:39:23;5.45;;;2.80;;
38238;SDS011;24035;48.900;9.188;2022-07-29T04:41:49;4.72;;;2.85;;
38238;SDS011;24035;48.900;9.188;2022-07-29T04:44:15;8.10;;;3.10;;
38238;SDS011;24035;48.900;9.188;2022-07-29T04:46:41;5.68;;;2.80;;
38238;SDS011;24035;48.900;9.188;2022-07-29T04:49:06;5.22;;;3.10;;
38238;SDS011;24035;48.900;9.188;2022-07-29T04:51:32;9.52;;;3.92;;
38238;SDS011;24035;48.900;9.188;2022-07-29T04:53:58;5.70;;;3.00;;
38238;SDS011;24035;48.900;9.188;2022-07-29T04:56:24;4.95;;;3.08;;
38238;SDS011;24035;48.900;9.188;2022-07-29T04:58:50;7.10;;;3.03;;
38238;SDS011;24035;48.900;9.188;2022-07-29T05:01:16;4.40;;;2.60;;
38238;SDS011;24035;48.900;9.188;2022-07-29T05:03:44;9.13;;;2.88;;
38238;SDS011;24035;48.900;9.188;2022-07-29T05:06:13;7.45;;;2.80;;
38238;SDS011;24035;48.900;9.188;2022-07-29T05:08:39;5.65;;;2.97;;
38238;SDS011;24035;48.900;9.188;2022-07-29T05:11:04;6.63;;;2.78;;
38238;SDS011;24035;48.900;9.188;2022-07-29T05:13:30;5.85;;;3.03;;
38238;SDS011;24035;48.900;9.188;2022-07-29T05:15:58;4.78;;;2.63;;
38238;SDS011;24035;48.900;9.188;2022-07-29T05:18:24;3.97;;;2.25;;
38238;SDS011;24035;48.900;9.188;2022-07-29T05:20:50;4.82;;;2.85;;
38238;SDS011;24035;48.900;9.188;2022-07-29T05:23:16;5.47;;;2.42;;
38238;SDS011;24035;48.900;9.188;2022-07-29T05:25:42;6.18;;;2.92;;
38238;SDS011;24035;48.900;9.188;2022-07-29T05:28:07;4.22;;;2.55;;
38238;SDS011;24035;48.900;9.188;2022-07-29T05:30:33;4.10;;;2.38;;
38238;SDS011;24035;48.900;9.188;2022-07-29T05:32:58;3.72;;;2.40;;
38238;SDS011;24035;48.900;9.188;2022-07-29T05:35:24;6.32;;;2.50;;
38238;SDS011;24035;48.900;9.188;2022-07-29T05:37:50;6.80;;;2.80;;
38238;SDS011;24035;48.900;9.188;2022-07-29T05:40:15;4.88;;;2.60;;
38238;SDS011;24035;48.900;9.188;2022-07-29T05:42:41;4.25;;;2.67;;
38238;SDS011;24035;48.900;9.188;2022-07-29T05:45:07;4.68;;;2.35;;
38238;SDS011;24035;48.900;9.188;2022-07-29T05:47:33;7.05;;;2.75;;
38238;SDS011;24035;48.900;9.188;2022-07-29T05:49:59;6.00;;;2.63;;
38238;SDS011;24035;48.900;9.188;2022-07-29T05:52:25;5.72;;;2.63;;
38238;SDS011;24035;48.900;9.188;2022-07-29T05:54:50;6.75;;;2.63;;
38238;SDS011;24035;48.900;9.188;2022-07-29T05:57:20;4.65;;;2.60;;
38238;SDS011;24035;48.900;9.188;2022-07-29T05:59:47;4.80;;;2.70;;
38238;SDS011;24035;48.900;9.188;2022-07-29T06:02:14;4.88;;;2.80;;
38238;SDS011;24035;48.900;9.188;2022-07-29T06:04:40;4.85;;;2.70;;
38238;SDS011;24035;48.900;9.188;2022-07-29T06:07:14;3.75;;;2.17;;
38238;SDS011;24035;48.900;9.188;2022-07-29T06:09:41;6.13;;;3.10;;
38238;SDS011;24035;48.900;9.188;2022-07-29T06:12:10;4.97;;;2.28;;
38238;SDS011;24035;48.900;9.188;2022-07-29T06:14:35;4.30;;;2.28;;
38238;SDS011;24035;48.900;9.188;2022-07-29T06:17:05;6.13;;;2.50;;
38238;SDS011;24035;48.900;9.188;2022-07-29T06:19:31;3.78;;;1.95;;
38238;SDS011;24035;48.900;9.188;2022-07-29T06:21:59;4.18;;;2.00;;
38238;SDS011;24035;48.900;9.188;2022-07-29T06:24:24;4.55;;;1.85;;
38238;SDS011;24035;48.900;9.188;2022-07-29T06:26:50;4.97;;;2.33;;
38238;SDS011;24035;48.900;9.188;2022-07-29T06:29:16;6.38;;;2.42;;
38238;SDS011;24035;48.900;9.188;2022-07-29T06:31:42;3.13;;;1.50;;
38238;SDS011;24035;48.900;9.188;2022-07-29T06:34:10;4.45;;;1.95;;
38238;SDS011;24035;48.900;9.188;2022-07-29T06:36:36;3.42;;;1.80;;
38238;SDS011;24035;48.900;9.188;2022-07-29T06:39:06;5.53;;;2.33;;
38238;SDS011;24035;48.900;9.188;2022-07-29T06:41:32;4.00;;;1.50;;
38238;SDS011;24035;48.900;9.188;2022-07-29T06:43:58;3.97;;;1.65;;
38238;SDS011;24035;48.900;9.188;2022-07-29T06:46:24;4.28;;;2.03;;
38238;SDS011;24035;48.900;9.188;2022-07-29T06:48:50;4.75;;;1.65;;
38238;SDS011;24035;48.900;9.188;2022-07-29T06:51:16;4.13;;;1.77;;
38238;SDS011;24035;48.900;9.188;2022-07-29T06:53:43;3.85;;;1.70;;
38238;SDS011;24035;48.900;9.188;2022-07-29T06:56:08;7.72;;;1.83;;
38238;SDS011;24035;48.900;9.188;2022-07-29T06:58:35;3.85;;;1.83;;
38238;SDS011;24035;48.900;9.188;2022-07-29T07:01:02;3.00;;;1.70;;
38238;SDS011;24035;48.900;9.188;2022-07-29T07:03:29;3.97;;;1.60;;
38238;SDS011;24035;48.900;9.188;2022-07-29T07:05:55;3.50;;;1.83;;
38238;SDS011;24035;48.900;9.188;2022-07-29T07:08:22;3.75;;;1.58;;
38238;SDS011;24035;48.900;9.188;2022-07-29T07:10:48;3.47;;;1.85;;
38238;SDS011;24035;48.900;9.188;2022-07-29T07:13:15;3.47;;;1.85;;
38238;SDS011;24035;48.900;9.188;2022-07-29T07:15:42;4.05;;;1.95;;
38238;SDS011;24035;48.900;9.188;2022-07-29T07:18:08;4.72;;;1.90;;
38238;SDS011;24035;48.900;9.188;2022-07-29T07:20:34;4.35;;;1.80;;
38238;SDS011;24035;48.900;9.188;2022-07-29T07:23:01;3.70;;;1.77;;
38238;SDS011;24035;48.900;9.188;2022-07-29T07:25:26;3.30;;;1.70;;
38238;SDS011;24035;48.900;9.188;2022-07-29T07:27:52;4.22;;;2.00;;
38238;SDS011;24035;48.900;9.188;2022-07-29T07:30:18;4.05;;;1.63;;
38238;SDS011;24035;48.900;9.188;2022-07-29T07:32:44;3.67;;;1.90;;
38238;SDS011;24035;48.900;9.188;2022-07-29T07:35:13;3.60;;;1.88;;
38238;SDS011;24035;48.900;9.188;2022-07-29T07:37:39;3.00;;;1.70;;
38238;SDS011;24035;48.900;9.188;2022-07-29T07:40:05;5.13;;;1.77;;
38238;SDS011;24035;48.900;9.188;2022-07-29T07:42:35;4.10;;;1.73;;
38238;SDS011;24035;48.900;9.188;2022-07-29T07:45:00;5.85;;;2.00;;
38238;SDS011;24035;48.900;9.188;2022-07-29T07:47:26;5.13;;;1.60;;
38238;SDS011;24035;48.900;9.188;2022-07-29T07:49:52;3.85;;;2.05;;
38238;SDS011;24035;48.900;9.188;2022-07-29T07:52:19;4.68;;;1.88;;
38238;SDS011;24035;48.900;9.188;2022-07-29T07:54:46;3.67;;;2.00;;
38238;SDS011;24035;48.900;9.188;2022-07-29T07:57:15;4.05;;;1.80;;
38238;SDS011;24035;48.900;9.188;2022-07-29T07:59:41;5.85;;;2.20;;
38238;SDS011;24035;48.900;9.188;2022-07-29T08:02:07;3.17;;;1.70;;
38238;SDS011;24035;48.900;9.188;2022-07-29T08:04:33;3.65;;;1.92;;
38238;SDS011;24035;48.900;9.188;2022-07-29T08:06:59;4.18;;;2.00;;
38238;SDS011;24035;48.900;9.188;2022-07-29T08:09:26;3.45;;;2.08;;
38238;SDS011;24035;48.900;9.188;2022-07-29T08:11:53;4.22;;;2.08;;
38238;SDS011;24035;48.900;9.188;2022-07-29T08:14:19;5.72;;;1.85;;
38238;SDS011;24035;48.900;9.188;2022-07-29T08:16:45;5.57;;;2.17;;
38238;SDS011;24035;48.900;9.188;2022-07-29T08:19:11;4.45;;;2.10;;
38238;SDS011;24035;48.900;9.188;2022-07-29T08:21:37;3.72;;;2.08;;
38238;SDS011;24035;48.900;9.188;2022-07-29T08:24:03;3.63;;;1.80;;
38238;SDS011;24035;48.900;9.188;2022-07-29T08:26:48;3.40;;;1.90;;
38238;SDS011;24035;48.900;9.188;2022-07-29T08:29:13;5.10;;;2.00;;
38238;SDS011;24035;48.900;9.188;2022-07-29T08:31:39;4.50;;;2.00;;
38238;SDS011;24035;48.900;9.188;2022-07-29T08:34:05;4.38;;;2.60;;
38238;SDS011;24035;48.900;9.188;2022-07-29T08:36:31;3.78;;;1.80;;
38238;SDS011;24035;48.900;9.188;2022-07-29T08:38:58;5.22;;;2.00;;
38238;SDS011;24035;48.900;9.188;2022-07-29T08:41:25;3.53;;;1.92;;
38238;SDS011;24035;48.900;9.188;2022-07-29T08:43:51;4.82;;;1.73;;
38238;SDS011;24035;48.900;9.188;2022-07-29T08:46:17;3.47;;;1.83;;
38238;SDS011;24035;48.900;9.188;2022-07-29T08:48:44;4.03;;;1.90;;
38238;SDS011;24035;48.900;9.188;2022-07-29T08:51:14;5.70;;;2.60;;
38238;SDS011;24035;48.900;9.188;2022-07-29T08:53:42;3.65;;;2.17;;
38238;SDS011;24035;48.900;9.188;2022-07-29T08:56:12;4.03;;;1.75;;
38238;SDS011;24035;48.900;9.188;2022-07-29T08:58:39;4.50;;;2.00;;
38238;SDS011;24035;48.900;9.188;2022-07-29T09:01:06;4.22;;;2.00;;
38238;SDS011;24035;48.900;9.188;2022-07-29T09:03:33;5.50;;;2.25;;
38238;SDS011;24035;48.900;9.188;2022-07-29T09:06:02;5.20;;;2.15;;
38238;SDS011;24035;48.900;9.188;2022-07-29T09:08:29;4.50;;;2.10;;
38238;SDS011;24035;48.900;9.188;2022-07-29T09:11:00;7.50;;;2.45;;
38238;SDS011;24035;48.900;9.188;2022-07-29T09:13:26;4.35;;;2.30;;
38238;SDS011;24035;48.900;9.188;2022-07-29T09:15:52;3.72;;;2.00;;
38238;SDS011;24035;48.900;9.188;2022-07-29T09:21:05;4.03;;;2.28;;
38238;SDS011;24035;48.900;9.188;2022-07-29T09:24:02;7.55;;;2.28;;
38238;SDS011;24035;48.900;9.188;2022-07-29T09:26:32;3.92;;;2.00;;
38238;SDS011;24035;48.900;9.188;2022-07-29T09:28:59;5.80;;;2.00;;
38238;SDS011;24035;48.900;9.188;2022-07-29T09:31:35;7.25;;;2.30;;
38238;SDS011;24035;48.900;9.188;2022-07-29T09:34:03;5.00;;;2.22;;
38238;SDS011;24035;48.900;9.188;2022-07-29T09:36:29;4.30;;;2.20;;
38238;SDS011;24035;48.900;9.188;2022-07-29T09:39:02;4.63;;;2.22;;
38238;SDS011;24035;48.900;9.188;2022-07-29T09:43:55;3.88;;;2.17;;
38238;SDS011;24035;48.900;9.188;2022-07-29T09:46:25;6.85;;;2.20;;
38238;SDS011;24035;48.900;9.188;2022-07-29T09:49:10;3.10;;;1.75;;
38238;SDS011;24035;48.900;9.188;2022-07-29T09:51:37;5.88;;;2.47;;
38238;SDS011;24035;48.900;9.188;2022-07-29T09:54:22;4.18;;;2.20;;
38238;SDS011;24035;48.900;9.188;2022-07-29T09:56:49;7.07;;;2.42;;
38238;SDS011;24035;48.900;9.188;2022-07-29T09:59:15;4.15;;;1.98;;
38238;SDS011;24035;48.900;9.188;2022-07-29T10:01:42;5.05;;;2.10;;
38238;SDS011;24035;48.900;9.188;2022-07-29T10:04:08;5.25;;;2.13;;
38238;SDS011;24035;48.900;9.188;2022-07-29T10:06:34;3.65;;;2.20;;
38238;SDS011;24035;48.900;9.188;2022-07-29T10:09:06;4.50;;;2.20;;
38238;SDS011;24035;48.900;9.188;2022-07-29T10:11:33;5.28;;;1.90;;
38238;SDS011;24035;48.900;9.188;2022-07-29T10:14:01;4.78;;;2.38;;
38238;SDS011;24035;48.900;9.188;2022-07-29T10:16:27;4.55;;;1.85;;
38238;SDS011;24035;48.900;9.188;2022-07-29T10:18:58;4.13;;;2.25;;
38238;SDS011;24035;48.900;9.188;2022-07-29T10:21:27;4.35;;;1.92;;
38238;SDS011;24035;48.900;9.188;2022-07-29T10:23:53;3.92;;;2.20;;
38238;SDS011;24035;48.900;9.188;2022-07-29T10:26:19;5.55;;;2.25;;
38238;SDS011;24035;48.900;9.188;2022-07-29T10:28:45;4.32;;;2.25;;
38238;SDS011;24035;48.900;9.188;2022-07-29T10:31:16;4.35;;;2.13;;
38238;SDS011;24035;48.900;9.188;2022-07-29T10:36:59;4.50;;;2.53;;
38238;SDS011;24035;48.900;9.188;2022-07-29T10:40:07;3.92;;;2.10;;
38238;SDS011;24035;48.900;9.188;2022-07-29T10:43:03;5.90;;;2.03;;
38238;SDS011;24035;48.900;9.188;2022-07-29T10:45:42;4.10;;;2.38;;
38238;SDS011;24035;48.900;9.188;2022-07-29T10:48:09;4.25;;;2.40;;
38238;SDS011;24035;48.900;9.188;2022-07-29T10:53:25;3.33;;;1.98;;
38238;SDS011;24035;48.900;9.188;2022-07-29T10:56:27;4.25;;;2.20;;
38238;SDS011;24035;48.900;9.188;2022-07-29T11:01:43;3.60;;;1.80;;
38238;SDS011;24035;48.900;9.188;2022-07-29T11:04:09;4.35;;;2.30;;
38238;SDS011;24035;48.900;9.188;2022-07-29T11:09:25;5.20;;;1.80;;
38238;SDS011;24035;48.900;9.188;2022-07-29T11:11:52;4.07;;;2.00;;
38238;SDS011;24035;48.900;9.188;2022-07-29T11:14:54;4.15;;;2.20;;
38238;SDS011;24035;48.900;9.188;2022-07-29T11:17:26;4.68;;;2.35;;
38238;SDS011;24035;48.900;9.188;2022-07-29T11:20:30;4.78;;;2.08;;
38238;SDS011;24035;48.900;9.188;2022-07-29T11:22:56;4.10;;;2.03;;
38238;SDS011;24035;48.900;9.188;2022-07-29T11:25:22;4.07;;;2.10;;
38238;SDS011;24035;48.900;9.188;2022-07-29T11:27:48;3.67;;;1.85;;
38238;SDS011;24035;48.900;9.188;2022-07-29T11:30:14;2.67;;;1.52;;
38238;SDS011;24035;48.900;9.188;2022-07-29T11:32:41;3.58;;;1.83;;
38238;SDS011;24035;48.900;9.188;2022-07-29T11:35:18;4.13;;;1.85;;
38238;SDS011;24035;48.900;9.188;2022-07-29T11:37:47;4.43;;;2.10;;
38238;SDS011;24035;48.900;9.188;2022-07-29T11:43:55;3.63;;;1.67;;
38238;SDS011;24035;48.900;9.188;2022-07-29T11:49:21;3.33;;;1.90;;
38238;SDS011;24035;48.900;9.188;2022-07-29T11:51:52;5.53;;;2.22;;
38238;SDS011;24035;48.900;9.188;2022-07-29T11:54:26;5.05;;;2.20;;
38238;SDS011;24035;48.900;9.188;2022-07-29T11:56:59;4.10;;;2.20;;
38238;SDS011;24035;48.900;9.188;2022-07-29T11:59:25;5.72;;;2.35;;
38238;SDS011;24035;48.900;9.188;2022-07-29T12:01:55;7.68;;;2.65;;
38238;SDS011;24035;48.900;9.188;2022-07-29T12:04:22;7.43;;;2.90;;
38238;SDS011;24035;48.900;9.188;2022-07-29T12:06:52;5.07;;;2.17;;
38238;SDS011;24035;48.900;9.188;2022-07-29T12:09:19;4.68;;;2.40;;
38238;SDS011;24035;48.900;9.188;2022-07-29T12:11:48;4.50;;;2.83;;
38238;SDS011;24035;48.900;9.188;2022-07-29T12:14:24;4.07;;;2.20;;
38238;SDS011;24035;48.900;9.188;2022-07-29T12:16:53;13.05;;;2.72;;
38238;SDS011;24035;48.900;9.188;2022-07-29T12:19:19;5.40;;;2.25;;
38238;SDS011;24035;48.900;9.188;2022-07-29T12:21:46;6.20;;;2.50;;
38238;SDS011;24035;48.900;9.188;2022-07-29T12:24:12;4.75;;;2.10;;
38238;SDS011;24035;48.900;9.188;2022-07-29T12:29:17;4.35;;;2.10;;
38238;SDS011;24035;48.900;9.188;2022-07-29T12:31:44;4.70;;;2.30;;
38238;SDS011;24035;48.900;9.188;2022-07-29T12:34:13;3.95;;;2.30;;
38238;SDS011;24035;48.900;9.188;2022-07-29T12:36:41;4.95;;;2.53;;
38238;SDS011;24035;48.900;9.188;2022-07-29T12:39:08;6.28;;;2.88;;
38238;SDS011;24035;48.900;9.188;2022-07-29T12:41:35;4.20;;;2.33;;
38238;SDS011;24035;48.900;9.188;2022-07-29T12:44:01;4.60;;;2.20;;
38238;SDS011;24035;48.900;9.188;2022-07-29T12:46:26;5.05;;;2.60;;
38238;SDS011;24035;48.900;9.188;2022-07-29T12:48:53;4.78;;;2.28;;
38238;SDS011;24035;48.900;9.188;2022-07-29T12:51:32;3.95;;;2.10;;
38238;SDS011;24035;48.900;9.188;2022-07-29T12:54:05;5.43;;;2.65;;
38238;SDS011;24035;48.900;9.188;2022-07-29T12:56:33;4.03;;;1.98;;
38238;SDS011;24035;48.900;9.188;2022-07-29T12:58:59;4.07;;;2.15;;
38238;SDS011;24035;48.900;9.188;2022-07-29T13:01:36;5.35;;;2.15;;
38238;SDS011;24035;48.900;9.188;2022-07-29T13:04:01;4.13;;;1.83;;
38238;SDS011;24035;48.900;9.188;2022-07-29T13:11:42;5.35;;;2.13;;
38238;SDS011;24035;48.900;9.188;2022-07-29T13:14:10;4.75;;;2.10;;
38238;SDS011;24035;48.900;9.188;2022-07-29T13:20:05;5.25;;;2.20;;
38238;SDS011;24035;48.900;9.188;2022-07-29T13:22:30;5.90;;;2.20;;
38238;SDS011;24035;48.900;9.188;2022-07-29T13:25:00;5.38;;;2.03;;
38238;SDS011;24035;48.900;9.188;2022-07-29T13:27:28;5.55;;;2.20;;
38238;SDS011;24035;48.900;9.188;2022-07-29T13:29:56;5.25;;;2.38;;
38238;SDS011;24035;48.900;9.188;2022-07-29T13:32:23;6.03;;;1.90;;
38238;SDS011;24035;48.900;9.188;2022-07-29T13:34:50;4.22;;;1.98;;
38238;SDS011;24035;48.900;9.188;2022-07-29T13:37:16;5.90;;;2.15;;
38238;SDS011;24035;48.900;9.188;2022-07-29T13:39:43;4.18;;;2.25;;
38238;SDS011;24035;48.900;9.188;2022-07-29T13:42:09;3.58;;;1.90;;
38238;SDS011;24035;48.900;9.188;2022-07-29T13:44:35;4.47;;;1.73;;
38238;SDS011;24035;48.900;9.188;2022-07-29T13:47:01;3.20;;;1.80;;
38238;SDS011;24035;48.900;9.188;2022-07-29T13:49:27;2.97;;;1.70;;
38238;SDS011;24035;48.900;9.188;2022-07-29T13:51:53;4.05;;;1.80;;
38238;SDS011;24035;48.900;9.188;2022-07-29T13:54:19;3.55;;;1.50;;
38238;SDS011;24035;48.900;9.188;2022-07-29T13:56:45;3.42;;;1.70;;
38238;SDS011;24035;48.900;9.188;2022-07-29T13:59:11;2.90;;;1.55;;
38238;SDS011;24035;48.900;9.188;2022-07-29T14:01:37;4.15;;;1.77;;
38238;SDS011;24035;48.900;9.188;2022-07-29T14:04:03;3.42;;;1.73;;
38238;SDS011;24035;48.900;9.188;2022-07-29T14:06:32;3.80;;;1.50;;
38238;SDS011;24035;48.900;9.188;2022-07-29T14:08:57;3.85;;;1.95;;
38238;SDS011;24035;48.900;9.188;2022-07-29T14:11:23;6.10;;;1.80;;
38238;SDS011;24035;48.900;9.188;2022-07-29T14:13:49;3.45;;;1.83;;
38238;SDS011;24035;48.900;9.188;2022-07-29T14:16:15;4.10;;;1.92;;
38238;SDS011;24035;48.900;9.188;2022-07-29T14:18:41;6.85;;;2.00;;
38238;SDS011;24035;48.900;9.188;2022-07-29T14:21:07;3.72;;;1.88;;
38238;SDS011;24035;48.900;9.188;2022-07-29T14:23:33;3.83;;;1.60;;
38238;SDS011;24035;48.900;9.188;2022-07-29T14:25:59;5.80;;;2.15;;
38238;SDS011;24035;48.900;9.188;2022-07-29T14:28:24;3.85;;;2.13;;
38238;SDS011;24035;48.900;9.188;2022-07-29T14:30:50;3.97;;;2.15;;
38238;SDS011;24035;48.900;9.188;2022-07-29T14:33:16;5.55;;;2.00;;
38238;SDS011;24035;48.900;9.188;2022-07-29T14:35:41;5.72;;;1.88;;
38238;SDS011;24035;48.900;9.188;2022-07-29T14:38:07;4.03;;;1.65;;
38238;SDS011;24035;48.900;9.188;2022-07-29T14:40:33;4.70;;;2.30;;
38238;SDS011;24035;48.900;9.188;2022-07-29T14:42:59;3.63;;;1.80;;
38238;SDS011;24035;48.900;9.188;2022-07-29T14:45:24;3.53;;;1.77;;
38238;SDS011;24035;48.900;9.188;2022-07-29T14:47:50;4.55;;;2.13;;
38238;SDS011;24035;48.900;9.188;2022-07-29T14:50:16;6.05;;;1.88;;
38238;SDS011;24035;48.900;9.188;2022-07-29T14:52:43;4.85;;;1.95;;
38238;SDS011;24035;48.900;9.188;2022-07-29T14:55:08;3.97;;;1.90;;
38238;SDS011;24035;48.900;9.188;2022-07-29T14:57:34;4.90;;;2.25;;
38238;SDS011;24035;48.900;9.188;2022-07-29T15:00:00;4.68;;;1.73;;
38238;SDS011;24035;48.900;9.188;2022-07-29T15:02:27;4.57;;;2.05;;
38238;SDS011;24035;48.900;9.188;2022-07-29T15:04:53;3.75;;;2.15;;
38238;SDS011;24035;48.900;9.188;2022-07-29T15:07:19;4.13;;;1.83;;
38238;SDS011;24035;48.900;9.188;2022-07-29T15:09:45;4.88;;;2.10;;
38238;SDS011;24035;48.900;9.188;2022-07-29T15:12:10;5.10;;;2.65;;
38238;SDS011;24035;48.900;9.188;2022-07-29T15:14:36;3.90;;;1.98;;
38238;SDS011;24035;48.900;9.188;2022-07-29T15:17:02;4.63;;;2.22;;
38238;SDS011;24035;48.900;9.188;2022-07-29T15:19:28;6.20;;;2.53;;
38238;SDS011;24035;48.900;9.188;2022-07-29T15:21:54;3.33;;;1.80;;
38238;SDS011;24035;48.900;9.188;2022-07-29T15:24:28;2.92;;;1.33;;
38238;SDS011;24035;48.900;9.188;2022-07-29T15:27:00;3.05;;;1.15;;
38238;SDS011;24035;48.900;9.188;2022-07-29T15:29:25;6.78;;;1.30;;
38238;SDS011;24035;48.900;9.188;2022-07-29T15:31:51;2.10;;;0.82;;
38238;SDS011;24035;48.900;9.188;2022-07-29T15:34:17;3.00;;;0.90;;
38238;SDS011;24035;48.900;9.188;2022-07-29T15:36:42;3.92;;;1.02;;
38238;SDS011;24035;48.900;9.188;2022-07-29T15:39:08;5.13;;;1.20;;
38238;SDS011;24035;48.900;9.188;2022-07-29T15:41:34;3.55;;;1.52;;
38238;SDS011;24035;48.900;9.188;2022-07-29T15:43:59;2.00;;;0.90;;
38238;SDS011;24035;48.900;9.188;2022-07-29T15:46:25;6.57;;;1.58;;
38238;SDS011;24035;48.900;9.188;2022-07-29T15:49:09;4.85;;;1.20;;
38238;SDS011;24035;48.900;9.188;2022-07-29T15:51:35;1.73;;;0.77;;
38238;SDS011;24035;48.900;9.188;2022-07-29T15:54:01;2.70;;;1.17;;